Time;durP1;ratioP1;P1;durP2;ratioP2;P2;SDS_P1;SDS_P2;PMS_P1;PMS_P2;Temp;Humidity;BMP_temperature;BMP_pressure;BME280_temperature;BME280_humidity;BME280_pressure;Samples;Min_cycle;Max_cycle;Signal;HPM_P1;HPM_P2
2022/09/03 00:01:38;;;;;;;4.03;1.60;;;12.10;99.90;;;;;;4990034;28;20487;-53
2022/09/03 00:04:12;;;;;;;1.27;1.17;;;12.10;99.90;;;;;;4974660;28;20804;-53
2022/09/03 00:06:42;;;;;;;1.53;1.20;;;12.00;99.90;;;;;;4989681;28;20881;-54
2022/09/03 00:09:15;;;;;;;1.50;1.37;;;12.10;99.90;;;;;;4984669;28;20480;-53
2022/09/03 00:11:50;;;;;;;3.63;1.40;;;12.00;99.90;;;;;;4981213;28;20531;-54
2022/09/03 00:14:21;;;;;;;12.33;1.60;;;12.00;99.90;;;;;;4984537;28;20452;-52
2022/09/03 00:16:53;;;;;;;1.70;1.53;;;11.90;99.90;;;;;;4990702;28;20504;-52
2022/09/03 00:19:24;;;;;;;1.43;1.30;;;11.90;99.90;;;;;;4976367;28;20594;-52
2022/09/03 00:21:56;;;;;;;4.57;1.37;;;11.90;99.90;;;;;;4981900;28;20557;-53
2022/09/03 00:24:25;;;;;;;1.40;1.30;;;11.90;99.90;;;;;;4988348;28;20467;-53
2022/09/03 00:26:57;;;;;;;2.00;1.20;;;11.90;99.90;;;;;;4990042;28;20464;-53
2022/09/03 00:29:28;;;;;;;3.87;1.20;;;11.80;99.90;;;;;;4986350;28;20480;-53
2022/09/03 00:32:00;;;;;;;4.70;1.40;;;11.80;99.90;;;;;;4987366;28;21056;-53
2022/09/03 00:34:31;;;;;;;1.40;1.30;;;11.70;99.90;;;;;;4982284;28;20939;-53
2022/09/03 00:36:58;;;;;;;2.90;1.27;;;11.70;99.90;;;;;;4989889;28;20444;-53
2022/09/03 00:39:27;;;;;;;2.10;1.23;;;11.60;99.90;;;;;;4982261;28;20547;-53
2022/09/03 00:42:08;;;;;;;3.33;1.57;;;11.60;99.90;;;;;;4982151;28;20499;-52
2022/09/03 00:44:54;;;;;;;1.60;1.50;;;11.60;99.90;;;;;;4985456;28;20547;-52
2022/09/03 00:47:29;;;;;;;1.93;1.40;;;11.60;99.90;;;;;;4972894;28;21146;-50
2022/09/03 00:50:08;;;;;;;1.60;1.23;;;11.60;99.90;;;;;;4991961;28;20530;-51
2022/09/03 00:52:45;;;;;;;2.00;1.10;;;11.60;99.90;;;;;;4994238;28;20464;-51
2022/09/03 00:55:22;;;;;;;1.57;1.17;;;11.50;99.90;;;;;;4984038;28;20464;-51
2022/09/03 00:58:02;;;;;;;1.47;1.30;;;11.60;99.90;;;;;;4984553;28;20484;-51
2022/09/03 01:00:29;;;;;;;1.23;1.13;;;11.50;99.90;;;;;;4981955;28;20459;-52
2022/09/03 01:03:06;;;;;;;1.47;1.30;;;11.50;99.90;;;;;;4991891;28;20527;-51
2022/09/03 01:05:48;;;;;;;4.40;1.40;;;11.50;99.90;;;;;;4995592;28;21114;-51
2022/09/03 01:08:31;;;;;;;2.50;1.30;;;11.50;99.90;;;;;;4995855;28;20504;-51
2022/09/03 01:11:09;;;;;;;3.10;1.50;;;11.50;99.90;;;;;;4986248;28;20955;-52
2022/09/03 01:13:40;;;;;;;1.20;1.07;;;11.50;99.90;;;;;;4979919;28;20957;-51
2022/09/03 01:16:18;;;;;;;1.37;1.27;;;11.50;99.90;;;;;;4979602;28;20492;-52
2022/09/03 01:18:55;;;;;;;4.23;1.33;;;11.50;99.90;;;;;;4991146;28;20492;-51
2022/09/03 01:21:45;;;;;;;1.00;1.00;;;11.50;99.90;;;;;;4992643;28;20467;-52
2022/09/03 01:24:30;;;;;;;6.60;1.20;;;11.50;99.90;;;;;;4995394;28;20965;-51
2022/09/03 01:27:09;;;;;;;1.47;1.10;;;11.50;99.90;;;;;;4983247;28;20536;-51
2022/09/03 01:29:42;;;;;;;1.57;1.47;;;11.50;99.90;;;;;;4975416;28;20480;-51
2022/09/03 01:32:16;;;;;;;1.47;1.20;;;11.50;99.90;;;;;;4980750;28;20480;-51
2022/09/03 01:34:52;;;;;;;1.30;1.20;;;11.50;99.90;;;;;;4987973;28;20463;-51
2022/09/03 01:37:31;;;;;;;1.53;1.43;;;11.50;99.90;;;;;;4995323;28;20926;-51
2022/09/03 01:40:05;;;;;;;2.70;1.20;;;11.50;99.90;;;;;;4994361;28;20472;-52
2022/09/03 01:42:44;;;;;;;0.90;0.90;;;11.40;99.90;;;;;;4986708;28;20468;-52
2022/09/03 01:45:24;;;;;;;3.13;1.27;;;11.40;99.90;;;;;;4987774;28;20510;-51
2022/09/03 01:48:05;;;;;;;3.10;1.67;;;11.40;99.90;;;;;;4994143;28;20958;-51
2022/09/03 01:50:43;;;;;;;3.03;1.43;;;11.40;99.90;;;;;;4990918;28;20495;-51
2022/09/03 01:53:18;;;;;;;2.53;1.30;;;11.30;99.90;;;;;;4994075;28;20503;-51
2022/09/03 01:56:01;;;;;;;1.53;1.43;;;11.30;99.90;;;;;;4994050;28;20471;-51
2022/09/03 01:58:33;;;;;;;1.90;1.20;;;11.20;99.90;;;;;;4994659;28;20519;-51
2022/09/03 02:01:07;;;;;;;2.63;1.20;;;11.20;99.90;;;;;;4993557;28;20448;-51
2022/09/03 02:03:37;;;;;;;1.30;1.20;;;11.20;99.90;;;;;;4994842;28;20580;-50
2022/09/03 02:06:04;;;;;;;3.33;1.43;;;11.20;99.90;;;;;;4993840;28;20500;-51
2022/09/03 02:08:31;;;;;;;3.30;1.40;;;11.10;99.90;;;;;;4993056;28;20566;-51
2022/09/03 02:11:01;;;;;;;1.73;1.30;;;11.10;99.90;;;;;;4992675;28;20813;-51
2022/09/03 02:13:30;;;;;;;3.30;1.60;;;11.10;99.90;;;;;;4980456;28;20545;-51
2022/09/03 02:16:00;;;;;;;6.03;1.53;;;11.00;99.90;;;;;;4975186;28;20485;-51
2022/09/03 02:18:33;;;;;;;1.70;1.13;;;11.00;99.90;;;;;;4975140;28;20520;-51
2022/09/03 02:21:00;;;;;;;1.70;1.60;;;11.10;99.90;;;;;;4976753;28;21020;-51
2022/09/03 02:23:28;;;;;;;1.43;1.33;;;11.10;99.90;;;;;;4986578;28;20465;-51
2022/09/03 02:25:58;;;;;;;1.53;1.43;;;11.10;99.90;;;;;;4989345;28;20523;-50
2022/09/03 02:28:26;;;;;;;1.53;1.30;;;11.10;99.90;;;;;;4986379;28;20476;-52
2022/09/03 02:30:53;;;;;;;1.73;1.50;;;11.10;99.90;;;;;;4993813;28;20515;-52
2022/09/03 02:33:20;;;;;;;1.13;1.13;;;11.10;99.90;;;;;;4994096;28;20449;-50
2022/09/03 02:35:47;;;;;;;3.87;1.60;;;11.10;99.90;;;;;;4993082;28;20619;-52
2022/09/03 02:38:16;;;;;;;11.87;1.50;;;11.10;99.90;;;;;;4993728;28;20523;-52
2022/09/03 02:40:43;;;;;;;2.20;1.40;;;11.10;99.90;;;;;;4983377;28;20474;-53
2022/09/03 02:43:16;;;;;;;4.40;1.70;;;11.10;99.90;;;;;;4977045;28;20453;-53
2022/09/03 02:45:47;;;;;;;1.50;1.40;;;11.10;99.90;;;;;;4974755;28;20454;-52
2022/09/03 02:48:20;;;;;;;1.30;1.20;;;11.10;99.90;;;;;;4975765;28;20466;-53
2022/09/03 02:50:48;;;;;;;5.03;1.77;;;11.00;99.90;;;;;;4984670;28;20527;-53
2022/09/03 02:53:16;;;;;;;4.70;1.57;;;11.00;99.90;;;;;;4974316;28;20453;-53
2022/09/03 02:55:42;;;;;;;2.00;1.30;;;11.00;99.90;;;;;;4983799;28;20502;-53
2022/09/03 02:58:09;;;;;;;1.10;1.00;;;11.00;99.90;;;;;;4992390;28;21009;-54
2022/09/03 03:00:36;;;;;;;4.80;1.20;;;11.00;99.90;;;;;;4992701;28;20464;-52
2022/09/03 03:03:04;;;;;;;2.00;1.57;;;10.90;99.90;;;;;;4991793;28;20460;-51
2022/09/03 03:05:39;;;;;;;1.57;1.47;;;10.90;99.90;;;;;;4993798;28;20472;-52
2022/09/03 03:08:07;;;;;;;2.30;1.57;;;10.90;99.90;;;;;;4993720;28;20503;-52
2022/09/03 03:10:34;;;;;;;1.40;1.23;;;10.90;99.90;;;;;;4992766;28;20806;-52
2022/09/03 03:13:01;;;;;;;1.30;1.20;;;10.90;99.90;;;;;;4984133;28;20814;-52
2022/09/03 03:15:27;;;;;;;8.53;1.30;;;10.90;99.90;;;;;;4991622;28;20464;-53
2022/09/03 03:17:55;;;;;;;1.70;1.60;;;10.90;99.90;;;;;;4992933;28;20522;-51
2022/09/03 03:20:22;;;;;;;1.10;1.00;;;10.90;99.90;;;;;;4993503;28;20520;-51
2022/09/03 03:22:49;;;;;;;1.30;1.30;;;10.80;99.90;;;;;;4992737;28;20519;-51
2022/09/03 03:25:17;;;;;;;5.67;1.30;;;10.80;99.90;;;;;;4989370;28;20957;-51
2022/09/03 03:27:44;;;;;;;1.60;1.40;;;10.80;99.90;;;;;;4984272;28;20449;-51
2022/09/03 03:30:11;;;;;;;5.43;1.40;;;10.80;99.90;;;;;;4992786;28;20484;-51
2022/09/03 03:32:38;;;;;;;5.60;1.23;;;10.80;99.90;;;;;;4991510;28;20559;-52
2022/09/03 03:35:06;;;;;;;1.40;1.30;;;10.70;99.90;;;;;;4992023;28;20938;-52
2022/09/03 03:37:35;;;;;;;1.57;1.30;;;10.70;99.90;;;;;;4992468;28;20465;-52
2022/09/03 03:40:02;;;;;;;1.87;1.43;;;10.70;99.90;;;;;;4992117;28;21220;-51
2022/09/03 03:42:33;;;;;;;1.53;1.30;;;10.60;99.90;;;;;;4990695;28;20970;-52
2022/09/03 03:45:01;;;;;;;1.27;1.17;;;10.60;99.90;;;;;;4992328;28;20469;-52
2022/09/03 03:47:29;;;;;;;6.43;1.57;;;10.60;99.90;;;;;;4978749;28;20508;-52
2022/09/03 03:49:55;;;;;;;3.60;1.30;;;10.60;99.90;;;;;;4987814;28;20484;-51
2022/09/03 03:52:22;;;;;;;1.17;1.10;;;10.60;99.90;;;;;;4986359;28;20466;-52
2022/09/03 03:54:49;;;;;;;1.40;1.30;;;10.60;99.90;;;;;;4988425;28;21036;-50
2022/09/03 03:57:16;;;;;;;3.43;1.90;;;10.50;99.90;;;;;;4992530;28;20498;-51
2022/09/03 03:59:43;;;;;;;1.40;1.30;;;10.50;99.90;;;;;;4992864;28;20876;-51
2022/09/03 04:02:10;;;;;;;1.43;1.33;;;10.50;99.90;;;;;;4992133;28;20511;-51
2022/09/03 04:04:37;;;;;;;1.63;1.53;;;10.50;99.90;;;;;;4992091;28;20444;-51
2022/09/03 04:07:04;;;;;;;6.77;1.70;;;10.40;99.90;;;;;;4989803;28;20465;-51
2022/09/03 04:09:30;;;;;;;1.63;1.10;;;10.50;99.90;;;;;;4992099;28;20472;-52
2022/09/03 04:11:57;;;;;;;1.93;1.60;;;10.50;99.90;;;;;;4982431;28;20496;-51
2022/09/03 04:14:24;;;;;;;1.50;1.40;;;10.50;99.90;;;;;;4991585;28;20985;-52
2022/09/03 04:16:52;;;;;;;1.60;1.50;;;10.40;99.90;;;;;;4983289;28;20445;-51
2022/09/03 04:19:19;;;;;;;5.13;1.33;;;10.50;99.90;;;;;;4976240;28;20832;-51
2022/09/03 04:21:46;;;;;;;2.20;1.47;;;10.50;99.90;;;;;;4985002;28;20780;-51
2022/09/03 04:24:12;;;;;;;1.30;1.20;;;10.60;99.90;;;;;;4983552;28;20449;-52
2022/09/03 04:26:39;;;;;;;2.80;1.43;;;10.60;99.90;;;;;;4990785;28;21055;-51
2022/09/03 04:29:08;;;;;;;1.60;1.50;;;10.60;99.90;;;;;;4991557;28;20483;-51
2022/09/03 04:31:37;;;;;;;4.10;1.70;;;10.70;99.90;;;;;;4980821;28;20517;-51
2022/09/03 04:34:05;;;;;;;2.97;1.23;;;10.70;99.90;;;;;;4981747;28;20461;-50
2022/09/03 04:36:32;;;;;;;1.77;1.50;;;10.70;99.90;;;;;;4988477;28;20452;-51
2022/09/03 04:39:01;;;;;;;1.57;1.47;;;10.80;99.90;;;;;;4990948;28;20488;-51
2022/09/03 04:41:29;;;;;;;1.53;1.27;;;10.80;99.90;;;;;;4990051;28;20491;-52
2022/09/03 04:43:57;;;;;;;1.93;1.57;;;10.90;99.90;;;;;;4982255;28;21234;-51
2022/09/03 04:46:25;;;;;;;4.57;1.73;;;10.90;99.90;;;;;;4977952;28;20895;-51
2022/09/03 04:48:54;;;;;;;1.70;1.60;;;10.90;99.90;;;;;;4981762;28;20472;-51
2022/09/03 04:51:23;;;;;;;4.63;2.10;;;10.90;99.90;;;;;;4980035;28;20442;-52
2022/09/03 04:53:55;;;;;;;3.50;1.67;;;11.00;99.90;;;;;;4972375;28;20453;-52
2022/09/03 04:56:24;;;;;;;3.07;1.80;;;11.00;99.90;;;;;;4991548;28;20473;-52
2022/09/03 04:58:55;;;;;;;2.27;2.00;;;11.10;99.90;;;;;;4991865;28;20527;-51
2022/09/03 05:01:25;;;;;;;1.67;1.57;;;11.10;99.90;;;;;;4991406;28;20538;-53
2022/09/03 05:03:51;;;;;;;2.20;1.70;;;11.20;99.90;;;;;;4992429;28;20507;-50
2022/09/03 05:06:18;;;;;;;2.83;1.53;;;11.20;99.90;;;;;;4986253;28;20458;-52
2022/09/03 05:08:49;;;;;;;4.20;1.77;;;11.30;99.90;;;;;;4989246;28;20826;-52
2022/09/03 05:11:16;;;;;;;3.27;1.60;;;11.30;99.90;;;;;;4981772;28;20461;-51
2022/09/03 05:13:43;;;;;;;3.23;1.57;;;11.40;99.90;;;;;;4991741;28;20820;-51
2022/09/03 05:16:11;;;;;;;3.43;1.70;;;11.40;99.90;;;;;;4991584;28;20484;-51
2022/09/03 05:18:41;;;;;;;2.17;1.70;;;11.40;99.90;;;;;;4991725;28;21053;-51
2022/09/03 05:21:09;;;;;;;2.63;1.90;;;11.50;99.90;;;;;;4991393;28;20490;-51
2022/09/03 05:23:37;;;;;;;1.60;1.50;;;11.60;99.90;;;;;;4990262;28;20530;-52
2022/09/03 05:26:08;;;;;;;1.60;1.50;;;11.60;99.90;;;;;;4985666;28;20456;-51
2022/09/03 05:28:36;;;;;;;1.83;1.70;;;11.60;99.90;;;;;;4990267;23;20488;-53
2022/09/03 05:31:04;;;;;;;4.17;1.80;;;11.70;99.90;;;;;;4999220;28;20441;-54
2022/09/03 05:33:33;;;;;;;2.43;1.87;;;11.70;99.90;;;;;;4999159;28;20475;-51
2022/09/03 05:36:02;;;;;;;2.97;1.83;;;11.80;99.90;;;;;;4999784;28;20934;-51
2022/09/03 05:38:28;;;;;;;4.03;1.10;;;11.80;99.90;;;;;;4992509;28;21078;-52
2022/09/03 05:40:58;;;;;;;3.00;1.73;;;11.90;99.90;;;;;;4992224;28;21094;-50
2022/09/03 05:43:26;;;;;;;2.27;1.80;;;11.90;99.90;;;;;;4994971;28;20441;-51
2022/09/03 05:45:57;;;;;;;1.63;1.50;;;11.90;99.90;;;;;;4993481;28;20838;-51
2022/09/03 05:48:23;;;;;;;1.83;1.73;;;12.00;99.90;;;;;;4990424;28;20530;-52
2022/09/03 05:50:59;;;;;;;5.20;1.80;;;12.00;99.90;;;;;;4990594;28;20492;-51
2022/09/03 05:53:25;;;;;;;2.40;1.60;;;12.00;99.90;;;;;;4995241;28;20444;-52
2022/09/03 05:55:56;;;;;;;8.57;2.07;;;12.10;99.90;;;;;;4994161;28;20468;-51
2022/09/03 05:58:24;;;;;;;1.63;1.53;;;12.20;99.90;;;;;;4994912;28;20456;-53
2022/09/03 06:00:52;;;;;;;3.03;1.80;;;12.20;99.90;;;;;;4994524;28;21029;-52
2022/09/03 06:03:18;;;;;;;1.57;1.17;;;12.30;99.90;;;;;;4993728;28;20523;-51
2022/09/03 06:05:50;;;;;;;4.33;2.10;;;12.30;99.90;;;;;;4993898;28;20886;-53
2022/09/03 06:08:16;;;;;;;1.83;1.73;;;12.40;99.90;;;;;;4994422;28;20456;-52
2022/09/03 06:10:43;;;;;;;4.93;1.57;;;12.50;99.90;;;;;;4993747;28;20484;-52
2022/09/03 06:13:10;;;;;;;8.67;1.50;;;12.50;99.90;;;;;;4994040;28;20445;-51
2022/09/03 06:15:37;;;;;;;4.20;2.03;;;12.60;99.90;;;;;;4994938;28;20452;-52
2022/09/03 06:18:06;;;;;;;5.43;1.87;;;12.60;99.90;;;;;;4992884;28;20492;-52
2022/09/03 06:20:33;;;;;;;3.33;1.80;;;12.70;99.90;;;;;;4994401;28;20508;-51
2022/09/03 06:23:00;;;;;;;2.87;1.57;;;12.80;99.90;;;;;;4992542;28;20452;-52
2022/09/03 06:25:26;;;;;;;4.40;1.60;;;12.80;99.90;;;;;;4993386;28;20503;-53
2022/09/03 06:27:53;;;;;;;3.13;1.63;;;12.90;99.90;;;;;;4993523;28;20832;-51
2022/09/03 06:30:21;;;;;;;1.80;1.53;;;13.00;99.90;;;;;;4994231;28;20472;-53
2022/09/03 06:32:49;;;;;;;2.70;1.60;;;13.00;99.90;;;;;;4992865;28;20471;-51
2022/09/03 06:35:16;;;;;;;3.53;2.00;;;13.10;99.90;;;;;;4993086;28;20551;-52
2022/09/03 06:37:43;;;;;;;6.63;1.73;;;13.20;99.90;;;;;;4992887;28;20465;-52
2022/09/03 06:40:13;;;;;;;1.87;1.77;;;13.20;99.90;;;;;;4994128;28;20578;-51
2022/09/03 06:42:40;;;;;;;1.47;1.37;;;13.30;99.90;;;;;;4988554;28;20496;-52
2022/09/03 06:45:08;;;;;;;1.43;1.20;;;13.40;99.90;;;;;;4986169;28;20474;-52
2022/09/03 06:47:34;;;;;;;6.80;1.43;;;13.40;99.90;;;;;;4993671;28;20448;-52
2022/09/03 06:50:01;;;;;;;2.07;1.40;;;13.40;99.90;;;;;;4994036;28;20818;-52
2022/09/03 06:52:29;;;;;;;2.50;1.47;;;13.50;99.90;;;;;;4992342;28;20471;-52
2022/09/03 06:54:56;;;;;;;4.10;1.70;;;13.50;99.90;;;;;;4992810;28;20464;-52
2022/09/03 06:57:23;;;;;;;3.93;1.43;;;13.60;99.90;;;;;;4993619;28;20449;-51
2022/09/03 06:59:49;;;;;;;1.83;1.60;;;13.70;99.90;;;;;;4992827;28;21278;-51
2022/09/03 07:02:17;;;;;;;4.07;1.87;;;13.80;99.90;;;;;;4993234;28;20789;-51
2022/09/03 07:04:44;;;;;;;4.40;2.23;;;14.00;99.90;;;;;;4992791;28;20461;-51
2022/09/03 07:07:12;;;;;;;15.93;3.60;;;14.10;99.90;;;;;;4986488;28;20475;-51
2022/09/03 07:09:40;;;;;;;2.07;1.30;;;14.10;99.90;;;;;;4992983;28;20535;-51
2022/09/03 07:12:09;;;;;;;1.80;1.30;;;14.20;99.90;;;;;;4990499;28;21045;-51
2022/09/03 07:14:36;;;;;;;1.87;1.37;;;14.30;99.90;;;;;;4992964;28;20845;-51
2022/09/03 07:17:03;;;;;;;1.70;1.50;;;14.40;76.30;;;;;;4992903;28;20503;-53
2022/09/03 07:19:29;;;;;;;5.43;1.90;;;14.40;78.20;;;;;;4993373;28;20500;-52
2022/09/03 07:21:56;;;;;;;10.73;1.40;;;14.50;24.20;;;;;;4993200;28;20449;-52
2022/09/03 07:24:23;;;;;;;3.23;1.43;;;14.60;73.30;;;;;;4994971;28;20464;-52
2022/09/03 07:26:51;;;;;;;3.87;1.30;;;14.60;28.10;;;;;;4994590;28;20465;-51
2022/09/03 07:29:19;;;;;;;1.23;1.13;;;14.70;28.90;;;;;;4998797;28;20899;-52
2022/09/03 07:31:47;;;;;;;1.40;1.30;;;14.70;33.00;;;;;;5000737;28;20455;-53
2022/09/03 07:34:15;;;;;;;2.13;1.93;;;14.80;30.70;;;;;;4998037;28;20453;-51
2022/09/03 07:36:44;;;;;;;3.50;1.87;;;14.80;34.10;;;;;;5001492;28;20511;-51
2022/09/03 07:39:12;;;;;;;3.63;1.57;;;14.90;40.60;;;;;;4996622;28;20500;-52
2022/09/03 07:41:42;;;;;;;2.70;1.70;;;15.00;40.90;;;;;;4996689;28;20488;-52
2022/09/03 07:44:09;;;;;;;1.60;1.37;;;15.10;41.00;;;;;;4975103;28;20453;-52
2022/09/03 07:46:39;;;;;;;3.53;1.70;;;15.10;51.30;;;;;;4990551;28;20472;-52
2022/09/03 07:49:06;;;;;;;4.50;1.23;;;15.20;61.30;;;;;;4991866;28;20880;-52
2022/09/03 07:51:34;;;;;;;1.63;1.23;;;15.20;64.70;;;;;;4990068;28;20954;-51
2022/09/03 07:54:05;;;;;;;2.10;1.70;;;15.30;53.90;;;;;;4992357;28;20511;-52
2022/09/03 07:56:34;;;;;;;1.40;1.30;;;15.40;75.60;;;;;;4992710;28;20511;-52
2022/09/03 07:59:01;;;;;;;1.57;1.43;;;15.50;74.10;;;;;;4992260;28;21015;-51
2022/09/03 08:01:31;;;;;;;7.60;1.60;;;15.60;82.30;;;;;;4991276;28;20532;-52
2022/09/03 08:03:58;;;;;;;4.10;1.60;;;15.60;85.10;;;;;;4993048;28;20456;-51
2022/09/03 08:06:27;;;;;;;5.13;1.47;;;15.70;89.10;;;;;;4992781;28;20866;-52
2022/09/03 08:08:58;;;;;;;1.27;1.20;;;15.70;88.20;;;;;;4991975;28;20468;-52
2022/09/03 08:11:26;;;;;;;1.50;1.40;;;15.80;99.90;;;;;;4987209;28;20456;-51
2022/09/03 08:14:00;;;;;;;2.90;1.33;;;15.80;99.90;;;;;;4992336;28;20839;-52
2022/09/03 08:16:26;;;;;;;2.20;1.97;;;15.90;99.00;;;;;;4992837;28;20440;-51
2022/09/03 08:18:55;;;;;;;2.20;1.50;;;15.90;99.90;;;;;;4991499;28;20607;-51
2022/09/03 08:21:22;;;;;;;2.73;1.70;;;16.00;99.90;;;;;;4992097;28;20488;-52
2022/09/03 08:23:51;;;;;;;3.83;1.40;;;16.10;95.70;;;;;;4984774;28;20552;-51
2022/09/03 08:26:20;;;;;;;1.53;1.33;;;16.10;93.30;;;;;;4992626;28;20445;-52
2022/09/03 08:28:48;;;;;;;7.70;1.60;;;16.20;99.90;;;;;;4991767;28;20480;-51
2022/09/03 08:31:16;;;;;;;2.10;1.50;;;16.30;99.20;;;;;;4991928;28;20455;-52
2022/09/03 08:33:45;;;;;;;2.47;1.40;;;16.30;99.90;;;;;;4991478;28;20567;-52
2022/09/03 08:36:14;;;;;;;3.37;1.63;;;16.30;99.90;;;;;;4992388;28;20840;-52
2022/09/03 08:38:44;;;;;;;1.60;1.50;;;16.40;99.90;;;;;;4991376;28;20520;-53
2022/09/03 08:41:15;;;;;;;1.70;1.60;;;16.50;99.90;;;;;;4990768;28;20585;-52
2022/09/03 08:43:58;;;;;;;1.47;1.20;;;16.60;99.90;;;;;;4992506;28;20507;-52
2022/09/03 08:46:33;;;;;;;2.07;1.70;;;16.70;99.90;;;;;;4992098;28;20449;-52
2022/09/03 08:49:01;;;;;;;1.77;1.67;;;16.80;99.90;;;;;;4992278;28;20468;-52
2022/09/03 08:51:29;;;;;;;1.50;1.40;;;16.90;99.90;;;;;;4990798;28;20484;-53
2022/09/03 08:53:58;;;;;;;1.60;1.50;;;17.00;99.90;;;;;;4987946;28;22292;-52
2022/09/03 08:56:28;;;;;;;2.67;1.60;;;17.20;99.90;;;;;;4991106;28;20457;-51
2022/09/03 08:58:55;;;;;;;8.53;1.67;;;17.50;99.90;;;;;;4991415;28;20480;-52
2022/09/03 09:01:30;;;;;;;3.00;1.40;;;17.70;99.90;;;;;;4990531;28;20516;-51
2022/09/03 09:04:08;;;;;;;1.73;1.60;;;17.90;99.90;;;;;;4992043;28;20474;-52
2022/09/03 09:06:42;;;;;;;1.60;1.50;;;18.10;99.90;;;;;;4991049;28;20952;-52
2022/09/03 09:09:23;;;;;;;4.73;1.57;;;18.30;99.90;;;;;;4991000;28;21023;-52
2022/09/03 09:12:00;;;;;;;2.90;1.20;;;18.50;99.90;;;;;;4993789;28;20922;-52
2022/09/03 09:14:35;;;;;;;1.40;1.33;;;18.70;99.90;;;;;;4995632;28;20456;-51
2022/09/03 09:17:13;;;;;;;1.47;1.37;;;18.80;99.90;;;;;;4996013;28;20450;-51
2022/09/03 09:19:50;;;;;;;3.73;1.57;;;18.80;99.90;;;;;;4995189;28;20518;-52
2022/09/03 09:22:27;;;;;;;4.10;1.40;;;18.90;99.90;;;;;;4985044;28;20578;-52
2022/09/03 09:24:57;;;;;;;2.93;1.30;;;19.00;99.90;;;;;;4995382;28;20536;-52
2022/09/03 09:27:24;;;;;;;6.37;1.40;;;19.10;99.90;;;;;;4995745;28;20502;-52
2022/09/03 09:29:52;;;;;;;2.20;1.43;;;19.40;99.90;;;;;;4995482;28;21072;-51
2022/09/03 09:32:19;;;;;;;4.33;1.30;;;19.50;99.90;;;;;;4994635;28;20524;-52
2022/09/03 09:34:46;;;;;;;1.37;1.10;;;19.20;99.90;;;;;;4994974;28;20456;-51
2022/09/03 09:37:15;;;;;;;1.73;1.50;;;19.40;99.90;;;;;;4994664;28;20460;-51
2022/09/03 09:39:56;;;;;;;4.10;1.33;;;19.50;99.90;;;;;;4994445;28;20516;-52
2022/09/03 09:42:23;;;;;;;1.30;1.20;;;19.70;99.90;;;;;;4996779;28;20484;-52
2022/09/03 09:44:50;;;;;;;2.30;1.47;;;19.80;99.90;;;;;;4998970;28;20950;-52
2022/09/03 09:47:23;;;;;;;1.70;1.10;;;19.90;99.90;;;;;;4998686;28;20943;-53
2022/09/03 09:49:53;;;;;;;4.53;1.43;;;20.00;99.90;;;;;;4995650;28;21060;-53
2022/09/03 09:52:24;;;;;;;9.40;1.20;;;20.00;99.90;;;;;;4993782;28;20511;-50
2022/09/03 09:55:06;;;;;;;4.00;1.40;;;20.00;99.90;;;;;;4993885;28;20516;-51
2022/09/03 09:57:34;;;;;;;2.30;1.30;;;20.20;99.90;;;;;;4994153;28;20468;-51
2022/09/03 10:00:07;;;;;;;1.57;1.23;;;20.40;99.90;;;;;;4995098;28;20472;-51
2022/09/03 10:02:39;;;;;;;5.63;1.50;;;20.40;99.90;;;;;;4994810;28;20542;-52
2022/09/03 10:05:14;;;;;;;4.17;1.17;;;20.30;99.90;;;;;;4994556;28;20830;-50
2022/09/03 10:07:40;;;;;;;2.20;1.60;;;20.40;99.90;;;;;;4993369;28;20504;-50
2022/09/03 10:10:18;;;;;;;1.40;1.30;;;20.50;99.90;;;;;;4992854;28;20560;-50
2022/09/03 10:12:49;;;;;;;1.60;1.50;;;20.60;99.90;;;;;;4993127;28;21001;-51
2022/09/03 10:15:23;;;;;;;9.87;1.30;;;20.50;99.90;;;;;;4994999;28;20448;-51
2022/09/03 10:18:00;;;;;;;2.00;1.10;;;20.70;99.90;;;;;;4995309;28;20534;-51
2022/09/03 10:20:36;;;;;;;1.00;0.90;;;20.70;99.90;;;;;;4994818;28;20523;-50
2022/09/03 10:23:10;;;;;;;3.00;1.50;;;20.80;99.90;;;;;;4991740;28;20958;-51
2022/09/03 10:25:50;;;;;;;3.63;1.47;;;20.80;99.90;;;;;;4994675;28;20526;-51
2022/09/03 10:28:18;;;;;;;2.60;1.10;;;20.80;99.90;;;;;;4987002;28;20532;-51
2022/09/03 10:31:03;;;;;;;2.10;0.90;;;20.80;99.90;;;;;;4993110;28;20491;-51
2022/09/03 10:33:35;;;;;;;3.03;0.87;;;20.80;99.90;;;;;;4989314;28;20441;-51
2022/09/03 10:36:11;;;;;;;4.50;1.40;;;20.80;99.90;;;;;;4993687;28;20477;-50
2022/09/03 10:38:41;;;;;;;4.50;1.73;;;20.90;99.90;;;;;;4993954;28;20472;-51
2022/09/03 10:41:20;;;;;;;1.40;1.30;;;20.90;99.90;;;;;;4980673;28;21390;-51
2022/09/03 10:44:05;;;;;;;2.40;1.17;;;21.00;99.90;;;;;;4994076;28;20502;-51
2022/09/03 10:46:43;;;;;;;1.10;1.10;;;21.20;99.90;;;;;;4992426;28;20472;-51
2022/09/03 10:49:40;;;;;;;2.80;1.00;;;21.20;99.90;;;;;;4986362;28;20986;-52
2022/09/03 10:52:14;;;;;;;3.63;1.10;;;21.70;99.90;;;;;;4983672;28;20460;-51
2022/09/03 10:54:52;;;;;;;4.67;1.00;;;22.10;99.90;;;;;;4993895;28;20437;-50
2022/09/03 10:57:31;;;;;;;1.10;1.10;;;22.00;99.90;;;;;;4993730;28;20467;-51
2022/09/03 11:00:07;;;;;;;3.63;1.90;;;21.80;99.90;;;;;;4991883;28;20539;-50
2022/09/03 11:03:26;;;;;;;1.10;1.00;;;22.00;99.90;;;;;;4992495;28;20490;-50
2022/09/03 11:06:00;;;;;;;3.00;1.30;;;22.00;99.90;;;;;;4990205;28;20936;-50
2022/09/03 11:08:31;;;;;;;2.20;1.40;;;21.80;99.90;;;;;;4989215;28;20488;-50
2022/09/03 11:11:09;;;;;;;4.20;1.07;;;21.80;99.90;;;;;;4993112;28;20445;-51
2022/09/03 11:13:43;;;;;;;1.37;1.30;;;22.10;99.90;;;;;;4993505;28;20454;-51
2022/09/03 11:16:15;;;;;;;1.43;1.27;;;21.50;99.90;;;;;;4992853;28;20452;-50
2022/09/03 11:18:46;;;;;;;1.30;1.20;;;21.30;99.90;;;;;;4993774;28;20531;-51
2022/09/03 11:21:15;;;;;;;1.57;1.47;;;21.00;99.90;;;;;;4993121;28;20546;-50
2022/09/03 11:23:45;;;;;;;1.30;1.20;;;20.80;99.90;;;;;;4992920;28;20547;-50
2022/09/03 11:26:13;;;;;;;2.87;1.00;;;20.70;99.90;;;;;;4993885;28;20445;-50
2022/09/03 11:28:51;;;;;;;1.30;1.20;;;20.60;99.90;;;;;;5006289;23;20504;-51
2022/09/03 11:31:26;;;;;;;4.23;1.33;;;20.60;99.90;;;;;;5011715;28;20452;-53
2022/09/03 11:34:00;;;;;;;1.73;1.07;;;20.60;99.90;;;;;;5011695;28;20487;-53
2022/09/03 11:36:31;;;;;;;1.20;1.03;;;20.60;99.90;;;;;;5011747;28;20463;-53
2022/09/03 11:38:59;;;;;;;3.03;1.57;;;20.50;99.90;;;;;;4998071;28;20466;-53
2022/09/03 11:41:27;;;;;;;1.20;1.20;;;20.50;99.90;;;;;;4972757;28;20520;-53
2022/09/03 11:43:55;;;;;;;4.00;0.93;;;20.60;99.90;;;;;;4973278;28;20461;-53
2022/09/03 11:46:30;;;;;;;1.10;1.00;;;20.70;99.90;;;;;;4977231;28;20838;-53
2022/09/03 11:49:09;;;;;;;3.53;2.33;;;20.80;99.90;;;;;;4991424;28;20523;-53
2022/09/03 11:51:38;;;;;;;1.47;1.30;;;20.80;99.90;;;;;;4991196;28;20466;-53
2022/09/03 11:54:06;;;;;;;1.67;1.03;;;20.70;99.90;;;;;;4992407;28;20452;-53
2022/09/03 11:56:34;;;;;;;6.90;1.10;;;20.70;99.90;;;;;;4992548;28;20453;-53
2022/09/03 11:59:18;;;;;;;1.30;1.20;;;20.60;99.90;;;;;;4992671;28;20527;-53
2022/09/03 12:01:51;;;;;;;2.87;1.20;;;20.60;99.90;;;;;;4989281;28;20901;-53
2022/09/03 12:04:21;;;;;;;2.23;1.47;;;20.60;99.90;;;;;;4986055;28;20453;-51
2022/09/03 12:07:16;;;;;;;1.13;1.03;;;20.60;99.90;;;;;;4990993;28;20464;-50
2022/09/03 12:10:17;;;;;;;3.03;1.20;;;20.60;99.90;;;;;;4973218;28;20531;-51
2022/09/03 12:12:53;;;;;;;2.40;1.27;;;20.60;99.90;;;;;;4965240;28;21010;-50
2022/09/03 12:15:39;;;;;;;1.13;1.00;;;20.80;99.90;;;;;;4972921;28;20547;-50
2022/09/03 12:21:04;;;;;;;1.03;0.93;;;21.00;99.90;;;;;;4982805;28;20884;-54
2022/09/03 12:23:32;;;;;;;1.37;1.20;;;20.80;99.90;;;;;;4989394;28;20530;-53
2022/09/03 12:26:03;;;;;;;2.90;1.53;;;20.60;99.90;;;;;;4991709;28;20444;-53
2022/09/03 12:28:32;;;;;;;1.83;1.70;;;20.60;99.90;;;;;;4992216;28;20871;-53
2022/09/03 12:31:19;;;;;;;1.47;1.37;;;20.50;99.90;;;;;;4991165;28;20818;-53
2022/09/03 12:33:48;;;;;;;1.43;1.30;;;20.50;99.90;;;;;;4992183;28;20480;-53
2022/09/03 12:36:15;;;;;;;4.03;1.50;;;20.50;99.90;;;;;;4986900;28;20548;-53
2022/09/03 12:38:41;;;;;;;1.47;1.37;;;20.40;99.90;;;;;;4990052;28;20468;-53
2022/09/03 12:41:25;;;;;;;2.07;1.30;;;20.40;99.90;;;;;;4991437;28;20454;-52
2022/09/03 12:43:53;;;;;;;1.03;1.03;;;20.40;99.90;;;;;;4992230;28;20818;-52
2022/09/03 12:46:23;;;;;;;2.00;1.33;;;20.50;99.90;;;;;;4993842;28;20448;-52
2022/09/03 12:49:02;;;;;;;3.57;1.10;;;20.60;99.90;;;;;;4995973;28;20468;-53
2022/09/03 12:51:36;;;;;;;8.97;1.10;;;20.70;99.90;;;;;;4986498;28;20456;-52
2022/09/03 12:54:04;;;;;;;2.97;1.30;;;20.70;99.90;;;;;;4990455;28;20460;-52
2022/09/03 12:56:34;;;;;;;2.67;1.43;;;20.60;99.90;;;;;;4996098;28;20449;-52
2022/09/03 12:59:06;;;;;;;2.37;1.00;;;20.60;99.90;;;;;;4995754;28;20483;-52
2022/09/03 13:01:41;;;;;;;1.20;1.10;;;20.50;99.90;;;;;;4995390;28;20511;-53
2022/09/03 13:04:14;;;;;;;1.57;1.27;;;20.50;99.90;;;;;;4995862;28;20480;-53
2022/09/03 13:06:50;;;;;;;4.83;1.23;;;20.60;99.90;;;;;;4995026;28;20880;-52
2022/09/03 13:09:22;;;;;;;4.53;1.30;;;20.50;99.90;;;;;;4994006;28;20484;-51